createdAt,value
2023-03-21T00:01:53.945Z,12.95
2023-03-21T00:04:40.918Z,9.27
2023-03-21T00:09:47.241Z,8.90
2023-03-21T00:12:14.678Z,10.90
2023-03-21T00:14:44.881Z,10.20
2023-03-21T00:17:12.510Z,11.73
2023-03-21T00:19:45.326Z,12.50
2023-03-21T00:22:14.921Z,8.05
2023-03-21T00:24:42.226Z,15.90
2023-03-21T00:27:42.648Z,8.20
2023-03-21T00:30:09.799Z,8.95
2023-03-21T00:32:45.822Z,9.18
2023-03-21T00:36:12.372Z,8.23
2023-03-21T00:38:09.870Z,8.10
2023-03-21T00:40:43.681Z,10.05
2023-03-21T00:43:19.667Z,7.90
2023-03-21T00:45:46.984Z,11.98
2023-03-21T00:48:14.382Z,12.43
2023-03-21T00:50:43.571Z,12.18
2023-03-21T00:53:14.208Z,10.77
2023-03-21T00:58:08.597Z,11.63
2023-03-21T01:00:39.231Z,10.52
2023-03-21T01:03:23.332Z,11.88
2023-03-21T01:06:07.592Z,11.05
2023-03-21T01:08:52.274Z,9.93
2023-03-21T01:11:23.208Z,12.45
2023-03-21T01:13:56.036Z,8.68
2023-03-21T01:16:27.035Z,8.40
2023-03-21T01:18:56.398Z,11.30
2023-03-21T01:21:24.350Z,7.35
2023-03-21T01:23:59.963Z,7.93
2023-03-21T01:26:32.145Z,12.18
2023-03-21T01:28:59.473Z,11.85
2023-03-21T01:31:29.053Z,11.15
2023-03-21T01:33:56.746Z,13.30
2023-03-21T01:36:26.240Z,10.02
2023-03-21T01:39:01.849Z,10.90
2023-03-21T01:41:42.955Z,12.88
2023-03-21T01:44:15.083Z,10.32
2023-03-21T01:46:51.872Z,7.68
2023-03-21T01:49:34.352Z,10.23
2023-03-21T01:52:12.181Z,11.40
2023-03-21T01:54:43.965Z,12.23
2023-03-21T01:57:19.894Z,14.30
2023-03-21T01:59:51.881Z,16.02
2023-03-21T02:02:27.651Z,8.38
2023-03-21T02:04:59.812Z,10.27
2023-03-21T02:07:29.338Z,10.93
2023-03-21T02:09:59.486Z,9.95
2023-03-21T02:12:31.046Z,12.43
2023-03-21T02:15:01.496Z,14.38
2023-03-21T02:17:49.152Z,12.02
2023-03-21T02:23:15.746Z,13.43
2023-03-21T02:26:01.281Z,8.68
2023-03-21T02:28:39.573Z,10.50
2023-03-21T02:31:26.769Z,16.25
2023-03-21T02:34:15.335Z,11.38
2023-03-21T02:36:51.344Z,8.00
2023-03-21T02:39:26.554Z,13.57
2023-03-21T02:41:53.890Z,13.80
2023-03-21T02:44:28.218Z,11.05
2023-03-21T02:47:05.921Z,12.50
2023-03-21T02:50:02.992Z,15.10
2023-03-21T02:52:39.063Z,14.95
2023-03-21T02:55:13.542Z,15.32
2023-03-21T02:57:43.744Z,11.27
2023-03-21T03:00:23.019Z,11.73
2023-03-21T03:02:54.573Z,11.02
2023-03-21T03:05:28.166Z,19.33
2023-03-21T03:08:17.287Z,14.82
2023-03-21T03:10:45.840Z,14.23
2023-03-21T03:13:21.676Z,20.40
2023-03-21T03:16:07.720Z,12.13
2023-03-21T03:18:42.345Z,13.20
2023-03-21T03:21:16.902Z,12.48
2023-03-21T03:23:58.539Z,11.25
2023-03-21T03:26:34.812Z,12.15
2023-03-21T03:29:05.581Z,13.10
2023-03-21T03:31:38.571Z,13.80
2023-03-21T03:34:11.116Z,13.77
2023-03-21T03:36:43.014Z,17.08
2023-03-21T03:39:14.149Z,13.63
2023-03-21T03:42:05.926Z,12.27
2023-03-21T03:44:33.447Z,11.80
2023-03-21T03:47:03.850Z,11.95
2023-03-21T03:49:35.201Z,15.27
2023-03-21T03:52:05.523Z,9.25
2023-03-21T03:54:40.499Z,18.65
2023-03-21T03:57:08.660Z,11.60
2023-03-21T03:59:39.675Z,8.43
2023-03-21T04:02:07.020Z,14.60
2023-03-21T04:04:34.589Z,12.07
2023-03-21T04:07:06.518Z,13.50
2023-03-21T04:09:44.638Z,9.80
2023-03-21T04:12:14.389Z,11.05
2023-03-21T04:14:46.016Z,16.05
2023-03-21T04:17:14.381Z,18.17
2023-03-21T04:19:43.667Z,12.32
2023-03-21T04:22:11.005Z,11.88
2023-03-21T04:24:41.444Z,9.38
2023-03-21T04:27:11.539Z,14.00
2023-03-21T04:29:41.376Z,12.15
2023-03-21T04:32:16.392Z,10.70
2023-03-21T04:34:50.071Z,9.45
2023-03-21T04:37:23.662Z,8.32
2023-03-21T04:39:51.602Z,12.82
2023-03-21T04:42:21.980Z,10.75
2023-03-21T04:44:52.633Z,15.75
2023-03-21T04:49:58.022Z,12.48
2023-03-21T04:52:25.721Z,13.18
2023-03-21T04:54:55.393Z,11.93
2023-03-21T04:57:29.804Z,13.33
2023-03-21T04:59:57.073Z,14.88
2023-03-21T05:02:26.654Z,12.77
2023-03-21T05:04:56.439Z,16.15
2023-03-21T05:07:28.841Z,11.37
2023-03-21T05:09:57.993Z,15.98
2023-03-21T05:12:25.334Z,12.45
2023-03-21T05:14:52.663Z,14.10
2023-03-21T05:17:25.798Z,27.85
2023-03-21T05:19:53.080Z,14.82
2023-03-21T05:22:26.690Z,12.32
2023-03-21T05:24:58.173Z,11.65
2023-03-21T05:27:37.178Z,13.45
2023-03-21T05:30:12.203Z,20.85
2023-03-21T05:32:42.504Z,10.40
2023-03-21T05:35:17.518Z,16.95
2023-03-21T05:37:44.844Z,16.33
2023-03-21T05:40:15.465Z,19.33
2023-03-21T05:45:12.688Z,11.57
2023-03-21T05:47:42.541Z,12.52
2023-03-21T05:50:10.408Z,19.13
2023-03-21T05:52:37.903Z,14.50
2023-03-21T05:55:12.649Z,16.15
2023-03-21T05:57:41.084Z,14.70
2023-03-21T06:00:13.843Z,13.50
2023-03-21T06:02:42.166Z,16.15
2023-03-21T06:05:13.294Z,20.02
2023-03-21T06:07:43.090Z,16.58
2023-03-21T06:10:18.069Z,11.85
2023-03-21T06:12:45.479Z,16.27
2023-03-21T06:15:12.907Z,21.27
2023-03-21T06:17:45.194Z,13.30
2023-03-21T06:20:15.468Z,14.25
2023-03-21T06:22:55.682Z,10.85
2023-03-21T06:25:22.993Z,11.40
2023-03-21T06:30:33.321Z,12.50
2023-03-21T06:33:00.512Z,12.77
2023-03-21T06:35:27.984Z,15.48
2023-03-21T06:40:57.268Z,13.25
2023-03-21T06:43:24.587Z,17.63
2023-03-21T06:45:59.645Z,14.40
2023-03-21T06:48:32.017Z,14.73
2023-03-21T06:50:59.640Z,14.50
2023-03-21T06:53:35.068Z,15.23
2023-03-21T06:56:15.549Z,21.63
2023-03-21T06:58:43.172Z,15.30
2023-03-21T07:01:10.652Z,10.95
2023-03-21T07:03:37.982Z,15.68
2023-03-21T07:06:07.349Z,12.57
2023-03-21T07:08:34.701Z,22.42
2023-03-21T07:11:02.134Z,17.13
2023-03-21T07:13:40.782Z,16.95
2023-03-21T07:16:10.847Z,15.75
2023-03-21T07:18:38.454Z,15.23
2023-03-21T07:21:06.006Z,9.63
2023-03-21T07:23:38.596Z,19.23
2023-03-21T07:26:05.876Z,14.18
2023-03-21T07:28:33.834Z,14.85
2023-03-21T07:31:02.747Z,20.10
2023-03-21T07:33:32.700Z,16.90
2023-03-21T07:36:08.356Z,15.98
2023-03-21T07:38:46.208Z,17.23
2023-03-21T07:41:23.245Z,10.10
2023-03-21T07:44:03.093Z,11.52
2023-03-21T07:46:38.134Z,13.35
2023-03-21T07:49:18.414Z,10.93
2023-03-21T07:51:48.390Z,15.80
2023-03-21T07:57:31.861Z,16.40
2023-03-21T08:00:01.699Z,22.77
2023-03-21T08:02:34.597Z,13.63
2023-03-21T08:05:02.421Z,13.65
2023-03-21T08:07:35.315Z,17.30
2023-03-21T08:10:02.921Z,22.50
2023-03-21T08:12:34.708Z,26.70
2023-03-21T08:15:04.636Z,23.15
2023-03-21T08:17:31.937Z,20.27
2023-03-21T08:20:08.985Z,18.63
2023-03-21T08:22:36.950Z,20.88
2023-03-21T08:25:05.578Z,23.52
2023-03-21T08:27:33.332Z,18.70
2023-03-21T08:30:00.857Z,23.42
2023-03-21T08:32:30.272Z,25.58
2023-03-21T08:37:44.103Z,21.38
2023-03-21T08:40:16.169Z,23.80
2023-03-21T08:42:54.384Z,26.25
2023-03-21T08:45:42.324Z,27.50
2023-03-21T08:48:21.129Z,19.38
2023-03-21T08:50:51.405Z,21.67
2023-03-21T08:53:23.467Z,20.65
2023-03-21T08:55:53.331Z,21.70
2023-03-21T08:58:24.767Z,25.70
2023-03-21T09:00:52.847Z,29.90
2023-03-21T09:03:20.298Z,23.38
2023-03-21T09:05:50.631Z,26.15
2023-03-21T09:08:21.117Z,31.73
2023-03-21T09:10:51.322Z,30.23
2023-03-21T09:13:20.807Z,33.83
2023-03-21T09:15:49.911Z,27.38
2023-03-21T09:18:18.203Z,21.85
2023-03-21T09:20:51.761Z,26.80
2023-03-21T09:23:19.832Z,35.05
2023-03-21T09:26:12.498Z,31.50
2023-03-21T09:28:40.452Z,30.02
2023-03-21T09:31:11.209Z,34.05
2023-03-21T09:33:40.355Z,33.33
2023-03-21T09:36:14.470Z,23.42
2023-03-21T09:38:45.734Z,34.00
2023-03-21T09:41:21.435Z,34.63
2023-03-21T09:43:58.677Z,20.73
2023-03-21T09:46:45.132Z,23.35
2023-03-21T09:49:17.384Z,22.70
2023-03-21T09:51:54.166Z,21.20
2023-03-21T09:54:28.076Z,25.73
2023-03-21T09:56:58.290Z,28.05
2023-03-21T09:59:44.658Z,24.52
2023-03-21T10:02:36.071Z,26.90
2023-03-21T10:05:13.399Z,22.92
2023-03-21T10:07:44.883Z,24.27
2023-03-21T10:10:18.089Z,29.63
2023-03-21T10:12:46.535Z,29.98
2023-03-21T10:15:19.216Z,20.05
2023-03-21T10:17:57.680Z,27.85
2023-03-21T10:20:27.218Z,18.83
2023-03-21T10:22:55.514Z,23.52
2023-03-21T10:25:36.657Z,27.08
2023-03-21T10:28:08.944Z,27.90
2023-03-21T10:30:45.706Z,20.70
2023-03-21T10:33:15.028Z,22.73
2023-03-21T10:35:50.684Z,22.77
2023-03-21T10:38:19.512Z,22.98
2023-03-21T10:40:46.877Z,20.65
2023-03-21T10:43:29.058Z,18.77
2023-03-21T10:45:57.851Z,26.13
2023-03-21T10:48:27.688Z,18.08
2023-03-21T10:50:59.144Z,20.67
2023-03-21T10:53:29.321Z,22.75
2023-03-21T10:56:08.140Z,22.70
2023-03-21T10:58:48.757Z,25.88
2023-03-21T11:03:51.194Z,16.65
2023-03-21T11:06:25.732Z,18.75
2023-03-21T11:08:57.766Z,17.52
2023-03-21T11:11:27.895Z,17.25
2023-03-21T11:14:06.810Z,17.80
2023-03-21T11:16:42.112Z,18.10
2023-03-21T11:19:20.172Z,17.02
2023-03-21T11:21:48.179Z,18.17
2023-03-21T11:24:30.491Z,19.48
2023-03-21T11:26:58.932Z,17.67
2023-03-21T11:29:46.460Z,14.82
2023-03-21T11:32:17.528Z,15.25
2023-03-21T11:34:44.745Z,14.82
2023-03-21T11:37:19.030Z,13.13
2023-03-21T11:39:55.984Z,19.73
2023-03-21T11:42:30.842Z,11.43
2023-03-21T11:45:15.247Z,13.15
2023-03-21T11:47:42.661Z,17.83
2023-03-21T11:50:17.748Z,12.48
2023-03-21T11:53:08.137Z,19.60
2023-03-21T11:55:43.139Z,17.17
2023-03-21T12:01:04.927Z,17.30
2023-03-21T12:03:47.287Z,11.23
2023-03-21T12:06:22.387Z,15.38
2023-03-21T12:08:54.702Z,15.38
2023-03-21T12:11:26.035Z,15.68
2023-03-21T12:13:53.256Z,16.08
2023-03-21T12:16:22.386Z,19.48
2023-03-21T12:22:03.960Z,16.95
2023-03-21T12:24:33.886Z,20.67
2023-03-21T12:35:30.520Z,17.95
2023-03-21T12:38:10.416Z,22.70
2023-03-21T12:40:46.067Z,19.38
2023-03-21T12:45:50.701Z,22.58
2023-03-21T12:48:40.033Z,13.32
2023-03-21T12:51:14.730Z,18.70
2023-03-21T12:54:00.105Z,18.45
2023-03-21T12:56:54.095Z,17.27
2023-03-21T12:59:51.991Z,22.85
2023-03-21T13:02:23.536Z,17.98
2023-03-21T13:04:55.676Z,14.02
2023-03-21T13:07:25.241Z,15.93
2023-03-21T13:09:55.317Z,20.07
2023-03-21T13:12:32.200Z,17.55
2023-03-21T13:21:02.216Z,18.73
2023-03-21T13:23:51.213Z,15.85
2023-03-21T13:26:26.050Z,15.77
2023-03-21T13:28:53.287Z,16.13
2023-03-21T13:31:22.896Z,15.18
2023-03-21T13:33:56.562Z,14.93
2023-03-21T13:36:28.745Z,13.25
2023-03-21T13:39:00.674Z,12.35
2023-03-21T13:41:41.498Z,14.88
2023-03-21T13:44:36.077Z,13.93
2023-03-21T13:47:25.791Z,14.00
2023-03-21T13:50:34.899Z,16.97
2023-03-21T13:53:13.866Z,12.25
2023-03-21T13:55:50.274Z,14.73
2023-03-21T13:58:42.702Z,16.38
2023-03-21T14:11:44.387Z,12.70
2023-03-21T14:14:15.547Z,16.83
2023-03-21T14:16:42.865Z,19.08
2023-03-21T14:19:11.893Z,18.20
2023-03-21T14:22:22.864Z,12.52
2023-03-21T14:24:58.296Z,16.75
2023-03-21T14:27:26.567Z,10.90
2023-03-21T14:29:53.900Z,10.63
2023-03-21T14:32:23.848Z,9.07
2023-03-21T14:34:50.977Z,17.00
2023-03-21T14:37:53.477Z,13.32
2023-03-21T14:40:25.608Z,9.73
2023-03-21T14:42:58.939Z,12.95
2023-03-21T14:45:27.979Z,11.65
2023-03-21T14:47:56.302Z,10.23
2023-03-21T14:50:25.338Z,15.70
2023-03-21T14:52:54.199Z,14.68
2023-03-21T14:55:21.212Z,14.30
2023-03-21T15:00:22.993Z,12.30
2023-03-21T15:02:50.167Z,9.43
2023-03-21T15:05:45.150Z,12.43
2023-03-21T15:11:08.329Z,10.52
2023-03-21T15:13:46.479Z,12.50
2023-03-21T15:16:16.830Z,7.75
2023-03-21T15:18:45.226Z,7.18
2023-03-21T15:21:22.189Z,5.13
2023-03-21T15:23:51.657Z,8.02
2023-03-21T15:26:19.823Z,11.30
2023-03-21T15:28:48.091Z,12.90
2023-03-21T15:31:19.333Z,8.02
2023-03-21T15:33:50.339Z,5.40
2023-03-21T15:39:09.508Z,6.25
2023-03-21T15:41:37.294Z,7.60
2023-03-21T15:44:10.535Z,7.53
2023-03-21T15:46:41.943Z,5.00
2023-03-21T15:49:14.845Z,12.50
2023-03-21T15:51:43.169Z,8.40
2023-03-21T15:54:16.239Z,9.70
2023-03-21T15:56:45.972Z,6.90
2023-03-21T15:59:17.818Z,9.90
2023-03-21T16:01:48.830Z,8.02
2023-03-21T16:04:18.461Z,7.05
2023-03-21T16:06:58.312Z,13.30
2023-03-21T16:09:25.785Z,6.93
2023-03-21T16:11:54.332Z,12.95
2023-03-21T16:14:22.129Z,6.82
2023-03-21T16:16:49.765Z,7.47
2023-03-21T16:19:17.212Z,9.23
2023-03-21T16:21:44.251Z,9.40
2023-03-21T16:24:23.374Z,7.53
2023-03-21T16:26:51.699Z,6.82
2023-03-21T16:29:19.678Z,6.88
2023-03-21T16:31:48.215Z,6.70
2023-03-21T16:34:15.403Z,8.15
2023-03-21T16:36:43.852Z,8.77
2023-03-21T16:39:24.860Z,9.75
2023-03-21T16:41:51.938Z,9.02
2023-03-21T16:44:19.874Z,6.72
2023-03-21T16:46:47.161Z,9.00
2023-03-21T16:49:24.727Z,7.60
2023-03-21T16:51:52.232Z,7.22
2023-03-21T16:54:25.869Z,8.77
2023-03-21T16:56:54.090Z,5.68
2023-03-21T16:59:21.326Z,7.43
2023-03-21T17:01:49.007Z,5.03
2023-03-21T17:04:17.474Z,10.02
2023-03-21T17:06:49.247Z,8.05
2023-03-21T17:09:19.887Z,6.35
2023-03-21T17:11:47.076Z,8.48
2023-03-21T17:14:17.717Z,6.32
2023-03-21T17:16:45.326Z,9.05
2023-03-21T17:19:13.467Z,10.43
2023-03-21T17:21:40.804Z,7.45
2023-03-21T17:29:48.862Z,7.90
2023-03-21T17:32:15.926Z,6.93
2023-03-21T17:34:42.961Z,10.10
2023-03-21T17:37:12.485Z,8.48
2023-03-21T17:39:42.781Z,9.50
2023-03-21T17:44:40.804Z,8.85
2023-03-21T17:47:07.851Z,6.75
2023-03-21T17:49:34.959Z,8.27
2023-03-21T17:52:01.972Z,14.02
2023-03-21T17:54:29.057Z,11.38
2023-03-21T17:59:36.431Z,7.13
2023-03-21T18:02:03.715Z,8.32
2023-03-21T18:04:31.042Z,6.68
2023-03-21T18:07:01.081Z,7.53
2023-03-21T18:09:28.476Z,10.52
2023-03-21T18:12:04.566Z,9.95
2023-03-21T18:14:31.987Z,7.55
2023-03-21T18:16:59.543Z,11.13
2023-03-21T18:19:27.157Z,7.57
2023-03-21T18:21:54.188Z,7.50
2023-03-21T18:24:21.235Z,7.00
2023-03-21T18:32:37.628Z,5.77
2023-03-21T18:35:05.693Z,7.82
2023-03-21T18:37:35.245Z,5.65
2023-03-21T18:40:05.292Z,10.10
2023-03-21T18:42:32.388Z,6.97
2023-03-21T18:47:30.844Z,8.35
2023-03-21T18:50:13.038Z,7.82
2023-03-21T18:52:41.289Z,8.27
2023-03-21T18:55:09.094Z,8.52
2023-03-21T18:57:38.218Z,8.55
2023-03-21T19:00:12.605Z,7.53
2023-03-21T19:03:09.904Z,7.55
2023-03-21T19:08:21.137Z,5.25
2023-03-21T19:10:48.943Z,8.27
2023-03-21T19:13:16.109Z,7.97
2023-03-21T19:15:43.293Z,8.57
2023-03-21T19:21:01.175Z,7.95
2023-03-21T19:23:39.843Z,5.28
2023-03-21T19:29:14.942Z,7.07
2023-03-21T19:31:44.996Z,6.40
2023-03-21T19:34:13.824Z,7.13
2023-03-21T19:36:45.645Z,7.43
2023-03-21T19:39:21.697Z,11.98
2023-03-21T19:41:54.383Z,7.17
2023-03-21T19:44:24.744Z,8.85
2023-03-21T19:46:51.796Z,8.25
2023-03-21T19:49:22.564Z,10.95
2023-03-21T19:51:52.447Z,10.85
2023-03-21T19:54:19.453Z,7.45
2023-03-21T19:56:48.184Z,6.93
2023-03-21T19:59:15.747Z,8.15
2023-03-21T20:01:43.372Z,7.15
2023-03-21T20:04:10.660Z,7.47
2023-03-21T20:06:38.490Z,6.47
2023-03-21T20:09:43.206Z,10.95
2023-03-21T20:11:53.362Z,8.15
2023-03-21T20:17:12.683Z,9.68
2023-03-21T20:19:39.797Z,9.30
2023-03-21T20:22:20.229Z,8.23
2023-03-21T20:24:56.783Z,10.75
2023-03-21T20:27:25.260Z,9.25
2023-03-21T20:30:09.153Z,6.38
2023-03-21T20:32:37.772Z,2.58
2023-03-21T20:35:18.838Z,7.60
2023-03-21T20:37:49.578Z,7.50
2023-03-21T20:40:20.244Z,2.92
2023-03-21T20:45:16.953Z,6.00
2023-03-21T20:47:44.021Z,6.97
2023-03-21T20:53:06.592Z,10.18
2023-03-21T20:55:34.775Z,6.70
2023-03-21T20:58:03.017Z,5.63
2023-03-21T21:00:30.133Z,3.85
2023-03-21T21:02:58.768Z,11.50
2023-03-21T21:05:30.647Z,9.88
2023-03-21T21:08:00.674Z,3.95
2023-03-21T21:10:28.827Z,6.10
2023-03-21T21:12:56.106Z,8.05
2023-03-21T21:15:23.328Z,10.63
2023-03-21T21:18:08.542Z,7.00
2023-03-21T21:20:36.930Z,8.80
2023-03-21T21:23:04.313Z,8.27
2023-03-21T21:25:34.658Z,8.27
2023-03-21T21:28:02.128Z,5.93
2023-03-21T21:30:29.402Z,9.88
2023-03-21T21:32:59.517Z,6.20
2023-03-21T21:35:26.653Z,6.93
2023-03-21T21:37:53.822Z,5.43
2023-03-21T21:40:23.133Z,3.85
2023-03-21T21:42:50.275Z,4.68
2023-03-21T21:45:18.305Z,6.97
2023-03-21T21:47:46.320Z,7.18
2023-03-21T21:50:22.166Z,5.60
2023-03-21T21:52:54.393Z,7.85
2023-03-21T21:55:21.520Z,7.65
2023-03-21T21:57:50.516Z,6.95
2023-03-21T22:00:19.291Z,9.13
2023-03-21T22:02:47.064Z,5.05
2023-03-21T22:05:17.508Z,7.57
2023-03-21T22:07:44.541Z,7.32
2023-03-21T22:10:11.605Z,7.57
2023-03-21T22:12:38.657Z,7.45
2023-03-21T22:15:07.142Z,6.28
2023-03-21T22:17:35.180Z,8.00
2023-03-21T22:22:40.194Z,9.68
2023-03-21T22:25:08.590Z,7.07
2023-03-21T22:27:36.025Z,9.35
2023-03-21T22:30:04.289Z,6.32
2023-03-21T22:32:31.988Z,11.25
2023-03-21T22:37:36.787Z,6.10
2023-03-21T22:40:06.668Z,8.93
2023-03-21T22:42:33.727Z,6.20
2023-03-21T22:45:01.456Z,8.82
2023-03-21T22:47:28.489Z,6.93
2023-03-21T22:52:38.481Z,7.95
2023-03-21T22:55:06.053Z,8.50
2023-03-21T22:57:33.124Z,17.38
2023-03-21T23:00:00.163Z,10.55
2023-03-21T23:02:27.328Z,9.60
2023-03-21T23:07:35.376Z,8.68
2023-03-21T23:10:02.857Z,11.23
2023-03-21T23:12:29.952Z,11.88
2023-03-21T23:14:56.909Z,9.57
2023-03-21T23:17:26.842Z,11.35
2023-03-21T23:20:01.489Z,10.48
2023-03-21T23:22:32.697Z,12.98
2023-03-21T23:24:59.752Z,13.57
2023-03-21T23:27:26.841Z,11.68
2023-03-21T23:29:54.210Z,9.73
2023-03-21T23:32:22.336Z,13.73
2023-03-21T23:37:31.188Z,16.65
2023-03-21T23:39:58.263Z,12.98
2023-03-21T23:42:25.631Z,14.77
2023-03-21T23:44:52.589Z,14.95
2023-03-21T23:47:19.729Z,14.00
2023-03-21T23:52:19.453Z,12.20
2023-03-21T23:54:46.656Z,14.82
2023-03-21T23:57:13.868Z,15.10
2023-03-21T23:59:40.839Z,14.52
